createdAt,value
2017-11-29T00:01:59.274Z,19.73
2017-11-29T00:04:28.391Z,18.20
2017-11-29T00:06:57.440Z,20.53
2017-11-29T00:09:25.716Z,19.20
2017-11-29T00:11:54.803Z,20.80
2017-11-29T00:14:24.224Z,22.20
2017-11-29T00:16:52.909Z,22.10
2017-11-29T00:19:22.008Z,20.80
2017-11-29T00:21:51.055Z,20.00
2017-11-29T00:24:19.332Z,21.30
2017-11-29T00:26:47.664Z,19.27
2017-11-29T00:29:17.311Z,20.80
2017-11-29T00:31:46.617Z,22.27
2017-11-29T00:34:14.952Z,21.27
2017-11-29T00:36:43.236Z,18.50
2017-11-29T00:39:11.524Z,19.80
2017-11-29T00:41:40.987Z,19.33
2017-11-29T00:44:09.271Z,21.27
2017-11-29T00:46:37.549Z,20.80
2017-11-29T00:49:06.038Z,19.73
2017-11-29T00:51:35.818Z,19.37
2017-11-29T00:54:04.095Z,23.27
2017-11-29T00:56:32.527Z,20.90
2017-11-29T00:59:00.815Z,20.40
2017-11-29T01:01:29.855Z,21.53
2017-11-29T01:03:58.188Z,21.70
2017-11-29T01:06:27.236Z,20.20
2017-11-29T01:08:56.284Z,20.20
2017-11-29T01:11:24.604Z,21.20
2017-11-29T01:13:52.894Z,20.60
2017-11-29T01:16:21.172Z,20.50
2017-11-29T01:18:49.515Z,19.03
2017-11-29T01:21:18.560Z,19.30
2017-11-29T01:23:47.614Z,22.47
2017-11-29T01:26:17.083Z,20.23
2017-11-29T01:28:45.375Z,21.40
2017-11-29T01:31:13.659Z,22.00
2017-11-29T01:33:41.992Z,21.97
2017-11-29T01:36:10.276Z,20.20
2017-11-29T01:38:38.561Z,18.80
2017-11-29T01:41:07.653Z,19.77
2017-11-29T01:43:35.945Z,19.50
2017-11-29T01:46:04.621Z,20.83
2017-11-29T01:48:32.955Z,21.13
2017-11-29T01:51:02.018Z,21.20
2017-11-29T01:53:30.310Z,20.30
2017-11-29T01:55:58.653Z,21.90
2017-11-29T01:58:26.945Z,21.43
2017-11-29T02:00:55.235Z,19.20
2017-11-29T02:03:23.560Z,21.60
2017-11-29T02:05:51.852Z,20.60
2017-11-29T02:08:20.892Z,21.93
2017-11-29T02:10:49.293Z,22.30
2017-11-29T02:13:17.570Z,21.43
2017-11-29T02:15:45.859Z,21.50
2017-11-29T02:18:14.192Z,20.50
2017-11-29T02:20:42.479Z,22.87
2017-11-29T02:23:11.523Z,20.60
2017-11-29T02:25:39.840Z,22.70
2017-11-29T02:28:08.886Z,21.80
2017-11-29T02:30:37.172Z,22.17
2017-11-29T02:33:06.427Z,22.87
2017-11-29T02:35:36.224Z,22.13
2017-11-29T02:38:05.916Z,23.00
2017-11-29T02:40:47.063Z,22.70
2017-11-29T02:43:16.544Z,23.07
2017-11-29T02:45:44.818Z,23.33
2017-11-29T02:48:13.097Z,24.27
2017-11-29T02:50:42.942Z,24.53
2017-11-29T02:53:11.252Z,22.97
2017-11-29T02:55:40.896Z,24.70
2017-11-29T02:58:09.876Z,26.33
2017-11-29T03:00:38.164Z,25.63
2017-11-29T03:03:06.451Z,24.60
2017-11-29T03:05:35.551Z,26.70
2017-11-29T03:08:04.619Z,25.63
2017-11-29T03:10:32.903Z,27.80
2017-11-29T03:13:01.237Z,27.37
2017-11-29T03:15:29.917Z,26.93
2017-11-29T03:17:58.209Z,26.70
2017-11-29T03:20:26.690Z,25.80
2017-11-29T03:22:54.975Z,27.00
2017-11-29T03:25:24.613Z,25.40
2017-11-29T03:27:53.177Z,23.73
2017-11-29T03:30:21.453Z,25.17
2017-11-29T03:32:49.743Z,24.63
2017-11-29T03:35:19.208Z,25.10
2017-11-29T03:37:47.861Z,25.53
2017-11-29T03:40:16.147Z,27.63
2017-11-29T03:42:45.990Z,25.50
2017-11-29T03:45:14.276Z,28.30
2017-11-29T03:47:42.570Z,27.80
2017-11-29T03:50:11.308Z,28.70
2017-11-29T03:52:39.595Z,26.97
2017-11-29T03:55:07.886Z,29.20
2017-11-29T03:57:36.212Z,27.27
2017-11-29T04:00:04.498Z,27.20
2017-11-29T04:02:32.776Z,28.40
2017-11-29T04:05:01.139Z,26.70
2017-11-29T04:07:30.188Z,27.40
2017-11-29T04:09:58.469Z,25.17
2017-11-29T04:12:27.600Z,25.70
2017-11-29T04:14:56.647Z,25.90
2017-11-29T04:17:24.936Z,25.03
2017-11-29T04:19:53.268Z,24.17
2017-11-29T04:22:21.549Z,24.77
2017-11-29T04:24:49.837Z,25.87
2017-11-29T04:27:18.166Z,24.37
2017-11-29T04:29:47.219Z,26.03
2017-11-29T04:32:15.496Z,23.53
2017-11-29T04:34:43.839Z,22.33
2017-11-29T04:37:13.637Z,24.67
2017-11-29T04:39:41.921Z,22.63
2017-11-29T04:42:10.257Z,26.00
2017-11-29T04:44:38.541Z,23.90
2017-11-29T04:47:06.830Z,23.30
2017-11-29T04:49:35.160Z,24.77
2017-11-29T04:52:04.953Z,25.00
2017-11-29T04:54:33.228Z,25.40
2017-11-29T04:57:02.692Z,28.70
2017-11-29T04:59:30.973Z,27.13
2017-11-29T05:02:00.020Z,27.73
2017-11-29T05:04:29.631Z,29.10
2017-11-29T05:06:57.907Z,28.77
2017-11-29T05:09:26.193Z,26.87
2017-11-29T05:11:55.302Z,27.90
2017-11-29T05:14:23.589Z,27.00
2017-11-29T05:16:52.669Z,27.00
2017-11-29T05:19:21.396Z,26.40
2017-11-29T05:21:49.680Z,29.07
2017-11-29T05:24:19.312Z,25.43
2017-11-29T05:26:47.921Z,27.40
2017-11-29T05:29:17.722Z,26.70
2017-11-29T05:31:45.994Z,25.47
2017-11-29T05:34:14.327Z,24.87
2017-11-29T05:36:42.617Z,24.30
2017-11-29T05:39:10.901Z,25.60
2017-11-29T05:41:39.218Z,24.73
2017-11-29T05:44:07.503Z,26.33
2017-11-29T05:46:35.814Z,25.23
2017-11-29T05:49:05.646Z,27.50
2017-11-29T05:51:33.936Z,22.77
2017-11-29T05:54:02.632Z,25.97
2017-11-29T05:56:32.310Z,25.03
2017-11-29T05:59:01.239Z,25.40
2017-11-29T06:01:29.519Z,25.07
2017-11-29T06:03:58.008Z,23.57
2017-11-29T06:06:26.286Z,22.77
2017-11-29T06:08:55.336Z,23.30
2017-11-29T06:11:23.675Z,23.10
2017-11-29T06:13:51.956Z,25.00
2017-11-29T06:16:20.243Z,24.10
2017-11-29T06:18:48.572Z,23.60
2017-11-29T06:21:16.849Z,22.33
2017-11-29T06:23:45.131Z,23.73
2017-11-29T06:26:13.781Z,25.53
2017-11-29T06:28:43.205Z,25.97
2017-11-29T06:31:11.487Z,23.90
2017-11-29T06:33:39.821Z,25.10
2017-11-29T06:36:08.106Z,24.20
2017-11-29T06:38:36.781Z,22.80
2017-11-29T06:41:05.118Z,23.47
2017-11-29T06:43:33.404Z,23.47
2017-11-29T06:46:01.689Z,24.13
2017-11-29T06:48:31.522Z,23.87
2017-11-29T06:51:00.575Z,24.13
2017-11-29T06:53:29.632Z,25.70
2017-11-29T06:55:57.960Z,26.37
2017-11-29T06:58:27.602Z,24.90
2017-11-29T07:00:56.165Z,26.90
2017-11-29T07:03:24.793Z,25.73
2017-11-29T07:05:53.076Z,25.80
2017-11-29T07:08:21.364Z,24.40
2017-11-29T07:10:50.468Z,26.27
2017-11-29T07:13:19.536Z,24.97
2017-11-29T07:15:47.822Z,22.73
2017-11-29T07:18:17.712Z,25.60
2017-11-29T07:20:46.776Z,25.62
2017-11-29T07:23:15.063Z,27.13
2017-11-29T07:25:43.400Z,26.42
2017-11-29T07:28:13.188Z,27.70
2017-11-29T07:30:41.475Z,25.73
2017-11-29T07:33:09.814Z,24.57
2017-11-29T07:35:38.104Z,25.10
2017-11-29T07:38:06.379Z,28.20
2017-11-29T07:40:36.308Z,25.10
2017-11-29T07:43:06.100Z,24.03
2017-11-29T07:45:34.379Z,27.40
2017-11-29T07:48:02.714Z,26.10
2017-11-29T07:50:31.000Z,24.50
2017-11-29T07:52:59.292Z,30.23
2017-11-29T07:55:27.794Z,28.33
2017-11-29T07:57:56.470Z,28.80
2017-11-29T08:00:25.900Z,25.60
2017-11-29T08:02:54.632Z,26.73
2017-11-29T08:05:22.915Z,28.27
2017-11-29T08:07:52.563Z,26.60
2017-11-29T08:10:20.785Z,27.47
2017-11-29T08:12:49.061Z,26.77
2017-11-29T08:15:18.112Z,27.83
2017-11-29T08:17:47.607Z,27.97
2017-11-29T08:20:17.250Z,26.60
2017-11-29T08:22:45.812Z,26.77
2017-11-29T08:25:15.508Z,25.40
2017-11-29T08:27:44.444Z,26.83
2017-11-29T08:30:12.741Z,25.60
2017-11-29T08:32:41.083Z,25.40
2017-11-29T08:35:09.369Z,28.47
2017-11-29T08:37:37.648Z,27.53
2017-11-29T08:40:08.696Z,27.20
2017-11-29T08:42:36.901Z,25.67
2017-11-29T08:45:05.974Z,25.37
2017-11-29T08:47:34.688Z,22.83
2017-11-29T08:50:02.967Z,25.03
2017-11-29T08:52:31.251Z,24.70
2017-11-29T08:55:01.092Z,25.63
2017-11-29T08:57:29.379Z,26.00
2017-11-29T08:59:57.667Z,24.90
2017-11-29T09:02:26.015Z,23.63
2017-11-29T09:04:54.312Z,23.10
2017-11-29T09:07:23.940Z,24.87
2017-11-29T09:09:52.536Z,27.60
2017-11-29T09:12:26.034Z,25.73
2017-11-29T09:14:54.772Z,23.73
2017-11-29T09:17:23.061Z,22.50
2017-11-29T09:19:51.349Z,25.13
2017-11-29T09:22:20.743Z,24.20
2017-11-29T09:24:50.532Z,21.40
2017-11-29T09:27:18.812Z,22.97
2017-11-29T09:29:48.648Z,25.43
2017-11-29T09:32:17.708Z,24.53
2017-11-29T09:34:45.997Z,24.70
2017-11-29T09:37:15.249Z,26.00
2017-11-29T09:39:43.531Z,25.70
2017-11-29T09:42:11.817Z,26.37
2017-11-29T09:44:40.144Z,25.63
2017-11-29T09:47:08.432Z,22.50
2017-11-29T09:49:36.716Z,21.30
2017-11-29T09:52:05.061Z,21.20
2017-11-29T09:54:34.483Z,22.00
2017-11-29T09:57:02.772Z,23.00
2017-11-29T09:59:31.165Z,22.87
2017-11-29T10:02:00.220Z,22.83
2017-11-29T10:04:28.501Z,20.73
2017-11-29T10:06:56.829Z,23.00
2017-11-29T10:09:25.117Z,21.37
2017-11-29T10:11:54.556Z,21.80
2017-11-29T10:14:22.991Z,21.73
2017-11-29T10:16:51.295Z,19.20
2017-11-29T10:19:19.982Z,18.73
2017-11-29T10:21:49.063Z,16.90
2017-11-29T10:24:17.346Z,20.90
2017-11-29T10:27:05.947Z,18.50
2017-11-29T10:29:34.228Z,15.07
2017-11-29T10:32:04.043Z,16.20
2017-11-29T10:34:32.379Z,16.20
2017-11-29T10:37:02.043Z,21.03
2017-11-29T10:39:30.583Z,18.40
2017-11-29T10:41:58.926Z,19.23
2017-11-29T10:44:27.242Z,19.00
2017-11-29T10:46:56.297Z,19.07
2017-11-29T10:49:24.624Z,13.33
2017-11-29T10:51:52.911Z,15.00
2017-11-29T10:54:21.188Z,13.63
2017-11-29T10:56:49.563Z,11.13
2017-11-29T10:59:18.668Z,12.07
2017-11-29T11:01:47.768Z,15.07
2017-11-29T11:04:16.098Z,13.73
2017-11-29T11:06:45.151Z,14.53
2017-11-29T11:09:13.430Z,15.47
2017-11-29T11:11:41.777Z,14.90
2017-11-29T11:14:10.051Z,16.23
2017-11-29T11:16:38.345Z,16.50
2017-11-29T11:19:06.680Z,15.83
2017-11-29T11:21:35.719Z,15.13
2017-11-29T11:24:03.999Z,16.13
2017-11-29T11:26:32.327Z,16.50
2017-11-29T11:29:00.604Z,16.30
2017-11-29T11:31:29.672Z,15.13
2017-11-29T11:33:58.768Z,14.30
2017-11-29T11:36:27.049Z,14.03
2017-11-29T11:38:55.335Z,16.63
2017-11-29T11:41:23.665Z,13.53
2017-11-29T11:43:51.989Z,12.50
2017-11-29T11:46:20.671Z,13.50
2017-11-29T11:48:49.000Z,13.93
2017-11-29T11:51:17.282Z,13.60
2017-11-29T11:53:45.563Z,12.70
2017-11-29T11:56:13.911Z,12.93
2017-11-29T11:58:43.535Z,12.10
2017-11-29T12:01:12.468Z,12.07
2017-11-29T12:03:41.584Z,13.27
2017-11-29T12:06:09.862Z,12.40
2017-11-29T12:08:38.147Z,11.50
2017-11-29T12:11:06.467Z,11.90
2017-11-29T12:13:34.767Z,14.00
2017-11-29T12:16:04.197Z,14.60
2017-11-29T12:18:35.053Z,15.43
2017-11-29T12:21:04.471Z,13.50
2017-11-29T12:23:32.766Z,15.00
2017-11-29T12:26:01.095Z,16.60
2017-11-29T12:28:29.379Z,15.40
2017-11-29T12:30:57.668Z,14.90
2017-11-29T12:33:26.001Z,15.13
2017-11-29T12:35:54.277Z,16.37
2017-11-29T12:38:22.563Z,16.50
2017-11-29T12:40:52.441Z,16.33
2017-11-29T12:43:21.489Z,15.67
2017-11-29T12:45:50.537Z,16.53
2017-11-29T12:48:31.461Z,16.70
2017-11-29T12:51:23.280Z,15.20
2017-11-29T12:53:52.082Z,15.60
2017-11-29T12:56:21.871Z,18.97
2017-11-29T12:58:50.560Z,17.10
2017-11-29T13:01:20.115Z,14.60
2017-11-29T13:03:48.412Z,15.50
2017-11-29T13:06:16.700Z,15.03
2017-11-29T13:08:45.036Z,15.63
2017-11-29T13:11:13.322Z,15.80
2017-11-29T13:13:41.607Z,15.90
2017-11-29T13:16:09.932Z,17.33
2017-11-29T13:18:38.223Z,16.83
2017-11-29T13:21:06.512Z,15.70
2017-11-29T13:23:35.987Z,15.37
2017-11-29T13:26:04.280Z,16.57
2017-11-29T13:28:35.052Z,14.60
2017-11-29T13:31:03.404Z,15.80
2017-11-29T13:33:31.684Z,14.93
2017-11-29T13:36:00.732Z,14.90
2017-11-29T13:38:29.820Z,13.90
2017-11-29T13:40:58.871Z,12.97
2017-11-29T13:43:27.924Z,12.47
2017-11-29T13:45:56.413Z,12.90
2017-11-29T13:48:24.703Z,13.43
2017-11-29T13:50:54.499Z,12.23
2017-11-29T13:53:23.604Z,13.40
2017-11-29T13:55:53.392Z,12.50
2017-11-29T13:58:21.676Z,14.17
2017-11-29T14:00:50.039Z,13.47
2017-11-29T14:03:19.831Z,14.23
2017-11-29T14:05:48.147Z,15.00
2017-11-29T14:08:16.495Z,14.53
2017-11-29T14:10:45.562Z,14.57
2017-11-29T14:13:13.839Z,13.50
2017-11-29T14:15:42.931Z,13.70
2017-11-29T14:18:11.231Z,15.63
2017-11-29T14:20:39.971Z,15.70
2017-11-29T14:23:09.804Z,14.47
2017-11-29T14:25:38.859Z,17.47
2017-11-29T14:28:07.140Z,14.93
2017-11-29T14:30:35.471Z,16.77
2017-11-29T14:33:03.776Z,15.80
2017-11-29T14:35:32.821Z,17.53
2017-11-29T14:38:01.153Z,16.73
2017-11-29T14:40:29.432Z,16.87
2017-11-29T14:42:57.732Z,17.27
2017-11-29T14:45:26.068Z,17.80
2017-11-29T14:47:54.747Z,16.97
2017-11-29T14:50:23.036Z,17.70
2017-11-29T14:52:51.379Z,17.90
2017-11-29T14:55:21.006Z,17.70
2017-11-29T14:57:49.164Z,18.63
2017-11-29T15:00:17.495Z,16.80
2017-11-29T15:02:45.788Z,18.47
2017-11-29T15:05:14.077Z,16.43
2017-11-29T15:07:42.403Z,19.90
2017-11-29T15:10:10.695Z,17.80
2017-11-29T15:12:38.985Z,18.50
2017-11-29T15:15:07.324Z,18.57
2017-11-29T15:17:36.748Z,19.90
2017-11-29T15:20:07.154Z,21.33
2017-11-29T15:22:35.503Z,18.03
2017-11-29T15:25:04.561Z,20.67
2017-11-29T15:27:33.654Z,18.47
2017-11-29T15:30:03.300Z,18.67
2017-11-29T15:32:31.460Z,21.27
2017-11-29T15:35:00.195Z,21.10
2017-11-29T15:37:29.253Z,18.00
2017-11-29T15:39:57.555Z,18.93
2017-11-29T15:42:25.924Z,19.40
2017-11-29T15:44:54.212Z,20.27
2017-11-29T15:47:23.635Z,18.70
2017-11-29T15:49:52.756Z,20.43
2017-11-29T15:52:21.809Z,18.13
2017-11-29T15:54:50.093Z,20.20
2017-11-29T15:57:18.425Z,20.17
2017-11-29T15:59:46.707Z,19.90
2017-11-29T16:02:14.997Z,18.80
2017-11-29T16:04:43.337Z,19.00
2017-11-29T16:07:11.612Z,18.57
2017-11-29T16:09:39.902Z,19.97
2017-11-29T16:12:08.633Z,20.63
2017-11-29T16:14:36.915Z,20.27
2017-11-29T16:17:05.216Z,20.80
2017-11-29T16:19:34.322Z,23.10
2017-11-29T16:22:03.007Z,32.77
2017-11-29T16:24:31.689Z,38.63
2017-11-29T16:27:00.015Z,32.30
2017-11-29T16:29:29.439Z,27.37
2017-11-29T16:31:57.728Z,28.30
2017-11-29T16:34:26.064Z,25.50
2017-11-29T16:36:54.356Z,24.90
2017-11-29T16:39:22.648Z,23.40
2017-11-29T16:41:50.984Z,23.47
2017-11-29T16:44:20.771Z,22.23
2017-11-29T16:46:49.060Z,20.20
2017-11-29T16:49:17.398Z,23.57
2017-11-29T16:51:45.679Z,23.80
2017-11-29T16:54:13.976Z,20.63
2017-11-29T16:56:43.655Z,21.63
2017-11-29T16:59:11.823Z,19.40
2017-11-29T17:01:40.096Z,19.43
2017-11-29T17:04:09.197Z,21.63
2017-11-29T17:06:38.835Z,20.77
2017-11-29T17:09:07.396Z,21.77
2017-11-29T17:11:35.731Z,18.93
2017-11-29T17:14:05.523Z,22.63
2017-11-29T17:16:33.811Z,21.80
2017-11-29T17:19:02.151Z,22.33
2017-11-29T17:21:30.445Z,21.20
2017-11-29T17:23:58.721Z,23.57
2017-11-29T17:26:27.087Z,29.10
2017-11-29T17:28:56.134Z,28.77
2017-11-29T17:31:25.198Z,25.13
2017-11-29T17:33:53.535Z,22.47
2017-11-29T17:36:22.583Z,22.13
2017-11-29T17:38:50.875Z,26.23
2017-11-29T17:41:19.223Z,23.73
2017-11-29T17:43:47.513Z,24.10
2017-11-29T17:46:15.799Z,25.10
2017-11-29T17:48:45.256Z,23.10
2017-11-29T17:51:13.544Z,24.13
2017-11-29T17:53:41.824Z,24.03
2017-11-29T17:56:10.150Z,23.60
2017-11-29T17:58:38.440Z,23.80
2017-11-29T18:01:06.720Z,23.93
2017-11-29T18:03:35.050Z,23.17
2017-11-29T18:06:04.477Z,26.53
2017-11-29T18:08:32.760Z,24.83
2017-11-29T18:12:34.733Z,23.03
2017-11-29T18:15:03.039Z,24.43
2017-11-29T18:17:31.329Z,23.10
2017-11-29T18:19:59.682Z,24.27
2017-11-29T18:22:28.732Z,24.10
2017-11-29T18:24:57.030Z,25.03
2017-11-29T18:29:08.950Z,21.77
2017-11-29T18:31:37.235Z,24.77
2017-11-29T18:34:05.927Z,25.70
2017-11-29T18:36:35.919Z,24.47
2017-11-29T18:39:05.712Z,24.77
2017-11-29T18:41:34.037Z,24.87
2017-11-29T18:44:02.552Z,25.50
2017-11-29T18:46:30.835Z,25.20
2017-11-29T18:48:59.124Z,22.50
2017-11-29T18:51:28.248Z,24.07
2017-11-29T18:53:57.015Z,24.83
2017-11-29T18:56:25.299Z,24.93
2017-11-29T18:58:54.776Z,23.70
2017-11-29T19:01:23.460Z,25.90
2017-11-29T19:03:52.616Z,23.57
2017-11-29T19:06:21.139Z,24.80
2017-11-29T19:08:50.567Z,24.47
2017-11-29T19:11:19.654Z,24.67
2017-11-29T19:13:48.000Z,23.03
2017-11-29T19:16:17.063Z,24.90
2017-11-29T19:18:46.219Z,24.73
2017-11-29T19:21:14.588Z,27.30
2017-11-29T19:23:43.672Z,27.63
2017-11-29T19:26:13.312Z,26.07
2017-11-29T19:28:42.308Z,28.27
2017-11-29T19:31:10.654Z,28.37
2017-11-29T19:33:38.940Z,27.63
2017-11-29T19:36:07.343Z,27.47
2017-11-29T19:38:36.073Z,27.20
2017-11-29T19:41:04.364Z,27.20
2017-11-29T19:43:33.497Z,28.13
2017-11-29T19:46:02.568Z,29.80
2017-11-29T19:48:30.881Z,27.07
2017-11-29T19:51:00.929Z,30.37
2017-11-29T19:53:29.244Z,28.00
2017-11-29T19:55:58.668Z,29.27
2017-11-29T19:58:27.759Z,27.97
2017-11-29T20:00:57.198Z,28.47
2017-11-29T20:03:25.514Z,29.50
2017-11-29T20:05:53.883Z,29.20
2017-11-29T20:08:22.165Z,30.20
2017-11-29T20:10:51.809Z,29.45
2017-11-29T20:13:20.552Z,28.87
2017-11-29T20:15:48.840Z,28.87
2017-11-29T20:18:17.478Z,31.42
2017-11-29T20:20:46.950Z,30.88
2017-11-29T20:23:15.312Z,32.78
2017-11-29T20:25:44.191Z,30.10
2017-11-29T20:28:12.535Z,29.13
2017-11-29T20:30:40.879Z,29.98
2017-11-29T20:33:09.169Z,31.13
2017-11-29T20:35:37.602Z,29.17
2017-11-29T20:38:05.994Z,31.30
2017-11-29T20:40:34.695Z,32.17
2017-11-29T20:43:03.036Z,29.50
2017-11-29T20:45:31.346Z,30.70
2017-11-29T20:48:00.408Z,30.88
2017-11-29T20:50:29.657Z,31.93
2017-11-29T20:52:57.984Z,33.75
2017-11-29T20:55:26.277Z,31.55
2017-11-29T20:57:56.367Z,30.50
2017-11-29T21:00:24.725Z,32.63
2017-11-29T21:02:53.007Z,30.95
2017-11-29T21:05:21.347Z,31.33
2017-11-29T21:07:50.129Z,32.07
2017-11-29T21:10:18.416Z,30.70
2017-11-29T21:12:46.751Z,27.87
2017-11-29T21:15:15.035Z,31.90
2017-11-29T21:17:43.330Z,29.77
2017-11-29T21:20:11.685Z,31.70
2017-11-29T21:22:40.793Z,29.07
2017-11-29T21:25:09.072Z,32.10
2017-11-29T21:27:37.475Z,27.67
2017-11-29T21:30:05.772Z,28.13
2017-11-29T21:32:34.063Z,31.27
2017-11-29T21:35:03.876Z,30.30
2017-11-29T21:37:32.170Z,29.10
2017-11-29T21:40:00.476Z,28.15
2017-11-29T21:42:28.932Z,31.42
2017-11-29T21:44:57.615Z,30.73
2017-11-29T21:47:25.908Z,28.60
2017-11-29T21:49:54.672Z,30.23
2017-11-29T21:52:24.328Z,29.33
2017-11-29T21:54:53.278Z,30.65
2017-11-29T21:57:22.109Z,31.20
2017-11-29T21:59:50.435Z,30.62
2017-11-29T22:02:18.763Z,30.58
2017-11-29T22:04:47.104Z,28.80
2017-11-29T22:07:15.395Z,30.98
2017-11-29T22:09:43.719Z,31.33
2017-11-29T22:12:12.056Z,31.67
2017-11-29T22:14:41.483Z,30.23
2017-11-29T22:17:11.166Z,33.75
2017-11-29T22:20:01.948Z,31.05
2017-11-29T22:22:30.227Z,34.33
2017-11-29T22:24:58.529Z,31.73
2017-11-29T22:27:27.033Z,34.42
2017-11-29T22:29:55.711Z,34.13
2017-11-29T22:32:24.735Z,33.17
2017-11-29T22:34:54.442Z,36.05
2017-11-29T22:37:22.727Z,34.72
2017-11-29T22:39:51.023Z,35.97
2017-11-29T22:42:20.522Z,35.60
2017-11-29T22:44:49.572Z,33.88
2017-11-29T22:47:18.637Z,34.90
2017-11-29T22:49:47.000Z,32.22
2017-11-29T22:52:15.302Z,33.85
2017-11-29T22:54:43.586Z,33.97
2017-11-29T22:57:11.927Z,33.42
2017-11-29T22:59:40.988Z,34.20
2017-11-29T23:02:10.048Z,35.53
2017-11-29T23:04:38.452Z,35.58
2017-11-29T23:07:06.752Z,37.25
2017-11-29T23:09:35.440Z,33.92
2017-11-29T23:12:04.859Z,36.38
2017-11-29T23:14:33.930Z,35.67
2017-11-29T23:17:02.211Z,34.42
2017-11-29T23:19:30.544Z,33.97
2017-11-29T23:21:58.832Z,33.58
2017-11-29T23:24:27.120Z,35.50
2017-11-29T23:26:55.451Z,37.28
2017-11-29T23:29:24.516Z,35.33
2017-11-29T23:31:52.795Z,34.55
2017-11-29T23:34:21.902Z,33.42
2017-11-29T23:36:51.353Z,34.90
2017-11-29T23:39:20.640Z,38.80
2017-11-29T23:41:50.326Z,36.00
2017-11-29T23:44:18.896Z,37.35
2017-11-29T23:46:47.955Z,36.47
2017-11-29T23:49:17.651Z,35.53
2017-11-29T23:51:45.818Z,37.80
2017-11-29T23:54:14.108Z,30.50
2017-11-29T23:56:43.593Z,34.00
2017-11-29T23:59:13.297Z,38.22
